sensor_id;sensor_type;location;lat;lon;timestamp;temperature;humidity
14172;DHT22;7165;52.388;4.928;2023-02-28T00:01:08;3.60;99.90
14172;DHT22;7165;52.388;4.928;2023-02-28T00:03:34;3.60;99.90
14172;DHT22;7165;52.388;4.928;2023-02-28T00:06:02;3.60;99.90
14172;DHT22;7165;52.388;4.928;2023-02-28T00:08:29;3.60;99.90
14172;DHT22;7165;52.388;4.928;2023-02-28T00:11:00;3.70;99.90
14172;DHT22;7165;52.388;4.928;2023-02-28T00:13:29;3.70;99.90
14172;DHT22;7165;52.388;4.928;2023-02-28T00:16:03;3.70;99.90
14172;DHT22;7165;52.388;4.928;2023-02-28T00:18:40;3.80;99.90
14172;DHT22;7165;52.388;4.928;2023-02-28T00:21:07;3.80;99.90
14172;DHT22;7165;52.388;4.928;2023-02-28T00:23:34;3.80;99.90
14172;DHT22;7165;52.388;4.928;2023-02-28T00:26:03;3.80;99.90
14172;DHT22;7165;52.388;4.928;2023-02-28T00:28:30;3.90;99.90
14172;DHT22;7165;52.388;4.928;2023-02-28T00:30:56;3.90;99.90
14172;DHT22;7165;52.388;4.928;2023-02-28T00:33:25;3.90;99.90
14172;DHT22;7165;52.388;4.928;2023-02-28T00:35:52;3.90;99.90
14172;DHT22;7165;52.388;4.928;2023-02-28T00:38:26;4.00;99.90
14172;DHT22;7165;52.388;4.928;2023-02-28T00:40:53;4.00;99.90
14172;DHT22;7165;52.388;4.928;2023-02-28T00:43:21;4.00;99.90
14172;DHT22;7165;52.388;4.928;2023-02-28T00:45:48;4.10;99.90
14172;DHT22;7165;52.388;4.928;2023-02-28T00:48:14;4.10;99.90
14172;DHT22;7165;52.388;4.928;2023-02-28T00:50:41;4.10;99.90
14172;DHT22;7165;52.388;4.928;2023-02-28T00:53:08;4.10;99.90
14172;DHT22;7165;52.388;4.928;2023-02-28T00:55:34;4.10;99.90
14172;DHT22;7165;52.388;4.928;2023-02-28T00:58:01;4.10;99.90
14172;DHT22;7165;52.388;4.928;2023-02-28T01:00:29;4.20;99.90
14172;DHT22;7165;52.388;4.928;2023-02-28T01:02:56;4.20;99.90
14172;DHT22;7165;52.388;4.928;2023-02-28T01:05:22;4.20;99.90
14172;DHT22;7165;52.388;4.928;2023-02-28T01:07:49;4.20;99.90
14172;DHT22;7165;52.388;4.928;2023-02-28T01:10:16;4.20;99.90
14172;DHT22;7165;52.388;4.928;2023-02-28T01:12:43;4.20;99.90
14172;DHT22;7165;52.388;4.928;2023-02-28T01:15:10;4.20;99.90
14172;DHT22;7165;52.388;4.928;2023-02-28T01:17:38;4.20;99.90
14172;DHT22;7165;52.388;4.928;2023-02-28T01:20:06;4.30;99.90
14172;DHT22;7165;52.388;4.928;2023-02-28T01:22:34;4.30;99.90
14172;DHT22;7165;52.388;4.928;2023-02-28T01:25:01;4.30;99.90
14172;DHT22;7165;52.388;4.928;2023-02-28T01:27:27;4.30;99.90
14172;DHT22;7165;52.388;4.928;2023-02-28T01:29:54;4.30;99.90
14172;DHT22;7165;52.388;4.928;2023-02-28T01:32:20;4.30;99.90
14172;DHT22;7165;52.388;4.928;2023-02-28T01:34:48;4.30;99.90
14172;DHT22;7165;52.388;4.928;2023-02-28T01:37:15;4.30;99.90
14172;DHT22;7165;52.388;4.928;2023-02-28T01:39:42;4.30;99.90
14172;DHT22;7165;52.388;4.928;2023-02-28T01:42:09;4.30;99.90
14172;DHT22;7165;52.388;4.928;2023-02-28T01:45:15;4.30;99.90
14172;DHT22;7165;52.388;4.928;2023-02-28T01:47:45;4.30;99.90
14172;DHT22;7165;52.388;4.928;2023-02-28T01:50:17;4.30;99.90
14172;DHT22;7165;52.388;4.928;2023-02-28T01:52:45;4.30;99.90
14172;DHT22;7165;52.388;4.928;2023-02-28T01:55:13;4.30;99.90
14172;DHT22;7165;52.388;4.928;2023-02-28T01:57:45;4.30;99.90
14172;DHT22;7165;52.388;4.928;2023-02-28T02:00:14;4.30;99.90
14172;DHT22;7165;52.388;4.928;2023-02-28T02:02:42;4.30;99.90
14172;DHT22;7165;52.388;4.928;2023-02-28T02:05:11;4.30;99.90
14172;DHT22;7165;52.388;4.928;2023-02-28T02:07:41;4.30;99.90
14172;DHT22;7165;52.388;4.928;2023-02-28T02:10:12;4.40;99.90
14172;DHT22;7165;52.388;4.928;2023-02-28T02:13:00;4.40;99.90
14172;DHT22;7165;52.388;4.928;2023-02-28T02:15:31;4.40;99.90
14172;DHT22;7165;52.388;4.928;2023-02-28T02:18:04;4.40;99.90
14172;DHT22;7165;52.388;4.928;2023-02-28T02:24:35;4.50;99.90
14172;DHT22;7165;52.388;4.928;2023-02-28T02:27:20;4.50;99.90
14172;DHT22;7165;52.388;4.928;2023-02-28T02:33:05;4.50;99.90
14172;DHT22;7165;52.388;4.928;2023-02-28T02:35:40;4.60;99.90
14172;DHT22;7165;52.388;4.928;2023-02-28T02:38:12;4.60;99.90
14172;DHT22;7165;52.388;4.928;2023-02-28T02:41:03;4.60;99.90
14172;DHT22;7165;52.388;4.928;2023-02-28T02:43:36;4.60;99.90
14172;DHT22;7165;52.388;4.928;2023-02-28T02:46:10;4.60;99.90
14172;DHT22;7165;52.388;4.928;2023-02-28T02:48:40;4.60;99.90
14172;DHT22;7165;52.388;4.928;2023-02-28T02:51:13;4.70;99.90
14172;DHT22;7165;52.388;4.928;2023-02-28T02:53:45;4.70;99.90
14172;DHT22;7165;52.388;4.928;2023-02-28T02:56:16;4.70;99.90
14172;DHT22;7165;52.388;4.928;2023-02-28T02:58:47;4.60;99.90
14172;DHT22;7165;52.388;4.928;2023-02-28T03:01:19;4.60;99.90
14172;DHT22;7165;52.388;4.928;2023-02-28T03:03:55;4.70;99.90
14172;DHT22;7165;52.388;4.928;2023-02-28T03:06:23;4.70;99.90
14172;DHT22;7165;52.388;4.928;2023-02-28T03:08:50;4.70;99.90
14172;DHT22;7165;52.388;4.928;2023-02-28T03:11:17;4.70;99.90
14172;DHT22;7165;52.388;4.928;2023-02-28T03:14:05;4.70;99.90
14172;DHT22;7165;52.388;4.928;2023-02-28T03:16:40;4.70;99.90
14172;DHT22;7165;52.388;4.928;2023-02-28T03:19:24;4.70;99.90
14172;DHT22;7165;52.388;4.928;2023-02-28T03:22:05;4.70;99.90
14172;DHT22;7165;52.388;4.928;2023-02-28T03:24:43;4.70;99.90
14172;DHT22;7165;52.388;4.928;2023-02-28T03:27:17;4.70;99.90
14172;DHT22;7165;52.388;4.928;2023-02-28T03:29:49;4.70;99.90
14172;DHT22;7165;52.388;4.928;2023-02-28T03:32:21;4.70;99.90
14172;DHT22;7165;52.388;4.928;2023-02-28T03:34:56;4.80;99.90
14172;DHT22;7165;52.388;4.928;2023-02-28T03:37:26;4.80;99.90
14172;DHT22;7165;52.388;4.928;2023-02-28T03:39:58;4.80;99.90
14172;DHT22;7165;52.388;4.928;2023-02-28T03:42:28;4.80;99.90
14172;DHT22;7165;52.388;4.928;2023-02-28T03:44:58;4.70;99.90
14172;DHT22;7165;52.388;4.928;2023-02-28T03:47:30;4.70;99.90
14172;DHT22;7165;52.388;4.928;2023-02-28T03:50:01;4.80;99.90
14172;DHT22;7165;52.388;4.928;2023-02-28T03:52:33;4.80;99.90
14172;DHT22;7165;52.388;4.928;2023-02-28T03:55:03;4.80;99.90
14172;DHT22;7165;52.388;4.928;2023-02-28T03:57:37;4.80;99.90
14172;DHT22;7165;52.388;4.928;2023-02-28T04:00:08;4.80;99.90
14172;DHT22;7165;52.388;4.928;2023-02-28T04:02:36;4.80;99.90
14172;DHT22;7165;52.388;4.928;2023-02-28T04:05:03;4.80;99.90
14172;DHT22;7165;52.388;4.928;2023-02-28T04:07:31;4.80;99.90
14172;DHT22;7165;52.388;4.928;2023-02-28T04:09:58;4.80;99.90
14172;DHT22;7165;52.388;4.928;2023-02-28T04:12:25;4.80;99.90
14172;DHT22;7165;52.388;4.928;2023-02-28T04:14:52;4.80;99.90
14172;DHT22;7165;52.388;4.928;2023-02-28T04:17:18;4.80;99.90
14172;DHT22;7165;52.388;4.928;2023-02-28T04:19:45;4.70;99.90
14172;DHT22;7165;52.388;4.928;2023-02-28T04:22:12;4.70;99.90
14172;DHT22;7165;52.388;4.928;2023-02-28T04:24:40;4.70;99.90
14172;DHT22;7165;52.388;4.928;2023-02-28T04:27:08;4.70;99.90
14172;DHT22;7165;52.388;4.928;2023-02-28T04:29:35;4.70;99.90
14172;DHT22;7165;52.388;4.928;2023-02-28T04:32:03;4.70;99.90
14172;DHT22;7165;52.388;4.928;2023-02-28T04:34:31;4.70;99.90
14172;DHT22;7165;52.388;4.928;2023-02-28T04:36:58;4.70;99.90
14172;DHT22;7165;52.388;4.928;2023-02-28T04:39:25;4.70;99.90
14172;DHT22;7165;52.388;4.928;2023-02-28T04:41:53;4.70;99.90
14172;DHT22;7165;52.388;4.928;2023-02-28T04:44:20;4.70;99.90
14172;DHT22;7165;52.388;4.928;2023-02-28T04:46:48;4.70;99.90
14172;DHT22;7165;52.388;4.928;2023-02-28T04:49:15;4.70;99.90
14172;DHT22;7165;52.388;4.928;2023-02-28T04:51:41;4.60;99.90
14172;DHT22;7165;52.388;4.928;2023-02-28T04:54:08;4.60;99.90
14172;DHT22;7165;52.388;4.928;2023-02-28T04:56:35;4.60;99.90
14172;DHT22;7165;52.388;4.928;2023-02-28T04:59:03;4.60;99.90
14172;DHT22;7165;52.388;4.928;2023-02-28T05:01:31;4.60;99.90
14172;DHT22;7165;52.388;4.928;2023-02-28T05:04:00;4.60;99.90
14172;DHT22;7165;52.388;4.928;2023-02-28T05:06:29;4.60;99.90
14172;DHT22;7165;52.388;4.928;2023-02-28T05:08:57;4.60;99.90
14172;DHT22;7165;52.388;4.928;2023-02-28T05:11:25;4.60;99.90
14172;DHT22;7165;52.388;4.928;2023-02-28T05:13:53;4.60;99.90
14172;DHT22;7165;52.388;4.928;2023-02-28T05:16:21;4.70;99.90
14172;DHT22;7165;52.388;4.928;2023-02-28T05:18:48;4.70;99.90
14172;DHT22;7165;52.388;4.928;2023-02-28T05:21:24;4.70;99.90
14172;DHT22;7165;52.388;4.928;2023-02-28T05:23:52;4.70;99.90
14172;DHT22;7165;52.388;4.928;2023-02-28T05:26:19;4.70;99.90
14172;DHT22;7165;52.388;4.928;2023-02-28T05:28:45;4.70;99.90
14172;DHT22;7165;52.388;4.928;2023-02-28T05:31:12;4.70;99.90
14172;DHT22;7165;52.388;4.928;2023-02-28T05:33:41;4.70;99.90
14172;DHT22;7165;52.388;4.928;2023-02-28T05:36:08;4.70;99.90
14172;DHT22;7165;52.388;4.928;2023-02-28T05:38:34;4.70;99.90
14172;DHT22;7165;52.388;4.928;2023-02-28T05:41:05;4.70;99.90
14172;DHT22;7165;52.388;4.928;2023-02-28T05:43:32;4.60;99.90
14172;DHT22;7165;52.388;4.928;2023-02-28T05:45:58;4.60;99.90
14172;DHT22;7165;52.388;4.928;2023-02-28T05:48:25;4.60;99.90
14172;DHT22;7165;52.388;4.928;2023-02-28T05:50:53;4.60;99.90
14172;DHT22;7165;52.388;4.928;2023-02-28T05:53:20;4.60;99.90
14172;DHT22;7165;52.388;4.928;2023-02-28T05:55:47;4.60;99.90
14172;DHT22;7165;52.388;4.928;2023-02-28T05:58:13;4.50;99.90
14172;DHT22;7165;52.388;4.928;2023-02-28T06:00:40;4.50;99.90
14172;DHT22;7165;52.388;4.928;2023-02-28T06:03:07;4.50;99.90
14172;DHT22;7165;52.388;4.928;2023-02-28T06:05:33;4.50;99.90
14172;DHT22;7165;52.388;4.928;2023-02-28T06:08:01;4.30;99.90
14172;DHT22;7165;52.388;4.928;2023-02-28T06:10:28;4.20;99.90
14172;DHT22;7165;52.388;4.928;2023-02-28T06:12:54;4.20;99.90
14172;DHT22;7165;52.388;4.928;2023-02-28T06:15:21;4.20;99.90
14172;DHT22;7165;52.388;4.928;2023-02-28T06:17:48;4.20;99.90
14172;DHT22;7165;52.388;4.928;2023-02-28T06:20:15;4.20;99.90
14172;DHT22;7165;52.388;4.928;2023-02-28T06:22:41;4.20;99.90
14172;DHT22;7165;52.388;4.928;2023-02-28T06:25:10;4.10;99.90
14172;DHT22;7165;52.388;4.928;2023-02-28T06:27:37;4.10;99.90
14172;DHT22;7165;52.388;4.928;2023-02-28T06:30:04;4.10;99.90
14172;DHT22;7165;52.388;4.928;2023-02-28T06:32:31;4.10;99.90
14172;DHT22;7165;52.388;4.928;2023-02-28T06:34:58;4.00;99.90
14172;DHT22;7165;52.388;4.928;2023-02-28T06:37:24;4.00;99.90
14172;DHT22;7165;52.388;4.928;2023-02-28T06:39:52;4.00;99.90
14172;DHT22;7165;52.388;4.928;2023-02-28T06:42:22;4.00;99.90
14172;DHT22;7165;52.388;4.928;2023-02-28T06:44:50;3.90;99.90
14172;DHT22;7165;52.388;4.928;2023-02-28T06:47:16;3.90;99.90
14172;DHT22;7165;52.388;4.928;2023-02-28T06:49:43;3.90;99.90
14172;DHT22;7165;52.388;4.928;2023-02-28T06:52:10;3.90;99.90
14172;DHT22;7165;52.388;4.928;2023-02-28T06:54:37;3.80;99.90
14172;DHT22;7165;52.388;4.928;2023-02-28T06:57:04;3.70;99.90
14172;DHT22;7165;52.388;4.928;2023-02-28T06:59:32;3.70;99.90
14172;DHT22;7165;52.388;4.928;2023-02-28T07:02:00;3.60;99.90
14172;DHT22;7165;52.388;4.928;2023-02-28T07:04:27;3.50;99.90
14172;DHT22;7165;52.388;4.928;2023-02-28T07:06:54;3.50;99.90
14172;DHT22;7165;52.388;4.928;2023-02-28T07:09:21;3.40;99.90
14172;DHT22;7165;52.388;4.928;2023-02-28T07:11:48;3.40;99.90
14172;DHT22;7165;52.388;4.928;2023-02-28T07:14:14;3.30;99.90
14172;DHT22;7165;52.388;4.928;2023-02-28T07:16:42;3.20;99.90
14172;DHT22;7165;52.388;4.928;2023-02-28T07:19:10;3.10;99.90
14172;DHT22;7165;52.388;4.928;2023-02-28T07:21:37;3.10;99.90
14172;DHT22;7165;52.388;4.928;2023-02-28T07:24:04;3.00;99.90
14172;DHT22;7165;52.388;4.928;2023-02-28T07:26:31;3.00;99.90
14172;DHT22;7165;52.388;4.928;2023-02-28T07:28:59;2.90;99.90
14172;DHT22;7165;52.388;4.928;2023-02-28T07:31:26;2.80;99.90
14172;DHT22;7165;52.388;4.928;2023-02-28T07:33:54;2.70;99.90
14172;DHT22;7165;52.388;4.928;2023-02-28T07:36:21;2.70;99.90
14172;DHT22;7165;52.388;4.928;2023-02-28T07:38:48;2.60;99.90
14172;DHT22;7165;52.388;4.928;2023-02-28T07:41:15;2.50;99.90
14172;DHT22;7165;52.388;4.928;2023-02-28T07:43:41;2.50;99.90
14172;DHT22;7165;52.388;4.928;2023-02-28T07:46:11;2.50;99.90
14172;DHT22;7165;52.388;4.928;2023-02-28T07:48:38;2.40;99.90
14172;DHT22;7165;52.388;4.928;2023-02-28T07:51:06;2.50;99.90
14172;DHT22;7165;52.388;4.928;2023-02-28T07:53:33;2.50;99.90
14172;DHT22;7165;52.388;4.928;2023-02-28T07:56:01;2.40;99.90
14172;DHT22;7165;52.388;4.928;2023-02-28T07:58:29;2.40;99.90
14172;DHT22;7165;52.388;4.928;2023-02-28T08:00:57;2.40;99.90
14172;DHT22;7165;52.388;4.928;2023-02-28T08:03:33;2.40;99.90
14172;DHT22;7165;52.388;4.928;2023-02-28T08:06:00;2.50;99.90
14172;DHT22;7165;52.388;4.928;2023-02-28T08:08:29;2.50;99.90
14172;DHT22;7165;52.388;4.928;2023-02-28T08:10:58;2.50;99.90
14172;DHT22;7165;52.388;4.928;2023-02-28T08:13:26;2.60;99.90
14172;DHT22;7165;52.388;4.928;2023-02-28T08:15:53;2.60;99.90
14172;DHT22;7165;52.388;4.928;2023-02-28T08:18:20;2.60;99.90
14172;DHT22;7165;52.388;4.928;2023-02-28T08:20:46;2.60;99.90
14172;DHT22;7165;52.388;4.928;2023-02-28T08:23:13;2.60;99.90
14172;DHT22;7165;52.388;4.928;2023-02-28T08:25:41;2.60;99.90
14172;DHT22;7165;52.388;4.928;2023-02-28T08:28:08;2.60;99.90
14172;DHT22;7165;52.388;4.928;2023-02-28T08:30:34;2.70;99.90
14172;DHT22;7165;52.388;4.928;2023-02-28T08:33:01;2.80;99.90
14172;DHT22;7165;52.388;4.928;2023-02-28T08:35:28;2.80;99.90
14172;DHT22;7165;52.388;4.928;2023-02-28T08:37:54;2.80;99.90
14172;DHT22;7165;52.388;4.928;2023-02-28T08:40:21;2.90;99.90
14172;DHT22;7165;52.388;4.928;2023-02-28T08:42:49;3.00;99.90
14172;DHT22;7165;52.388;4.928;2023-02-28T08:45:16;3.00;99.90
14172;DHT22;7165;52.388;4.928;2023-02-28T08:47:42;3.00;99.90
14172;DHT22;7165;52.388;4.928;2023-02-28T08:50:10;3.10;99.90
14172;DHT22;7165;52.388;4.928;2023-02-28T08:52:36;3.10;99.90
14172;DHT22;7165;52.388;4.928;2023-02-28T08:55:04;3.10;99.90
14172;DHT22;7165;52.388;4.928;2023-02-28T08:57:30;3.20;99.90
14172;DHT22;7165;52.388;4.928;2023-02-28T08:59:59;3.20;99.90
14172;DHT22;7165;52.388;4.928;2023-02-28T09:02:28;3.30;99.90
14172;DHT22;7165;52.388;4.928;2023-02-28T09:04:55;3.30;99.90
14172;DHT22;7165;52.388;4.928;2023-02-28T09:07:21;3.40;99.90
14172;DHT22;7165;52.388;4.928;2023-02-28T09:09:48;3.40;99.90
14172;DHT22;7165;52.388;4.928;2023-02-28T09:12:21;3.50;99.90
14172;DHT22;7165;52.388;4.928;2023-02-28T09:14:47;3.50;99.90
14172;DHT22;7165;52.388;4.928;2023-02-28T09:17:15;3.60;99.90
14172;DHT22;7165;52.388;4.928;2023-02-28T09:19:42;3.70;99.90
14172;DHT22;7165;52.388;4.928;2023-02-28T09:22:09;3.70;99.90
14172;DHT22;7165;52.388;4.928;2023-02-28T09:24:36;3.80;99.90
14172;DHT22;7165;52.388;4.928;2023-02-28T09:27:04;3.90;99.90
14172;DHT22;7165;52.388;4.928;2023-02-28T09:29:31;4.00;99.90
14172;DHT22;7165;52.388;4.928;2023-02-28T09:31:58;4.10;99.90
14172;DHT22;7165;52.388;4.928;2023-02-28T09:34:26;4.10;99.90
14172;DHT22;7165;52.388;4.928;2023-02-28T09:36:56;4.10;99.90
14172;DHT22;7165;52.388;4.928;2023-02-28T09:39:23;4.20;99.90
14172;DHT22;7165;52.388;4.928;2023-02-28T09:41:52;4.20;99.90
14172;DHT22;7165;52.388;4.928;2023-02-28T09:44:24;4.20;99.90
14172;DHT22;7165;52.388;4.928;2023-02-28T09:46:55;4.30;99.90
14172;DHT22;7165;52.388;4.928;2023-02-28T09:49:28;4.40;99.90
14172;DHT22;7165;52.388;4.928;2023-02-28T09:51:59;4.50;99.90
14172;DHT22;7165;52.388;4.928;2023-02-28T09:54:30;4.60;99.90
14172;DHT22;7165;52.388;4.928;2023-02-28T09:56:59;4.70;99.90
14172;DHT22;7165;52.388;4.928;2023-02-28T09:59:51;4.70;99.90
14172;DHT22;7165;52.388;4.928;2023-02-28T10:02:52;4.80;99.90
14172;DHT22;7165;52.388;4.928;2023-02-28T10:05:27;4.80;99.90
14172;DHT22;7165;52.388;4.928;2023-02-28T10:08:01;4.80;99.90
14172;DHT22;7165;52.388;4.928;2023-02-28T10:10:35;4.90;99.90
14172;DHT22;7165;52.388;4.928;2023-02-28T10:13:06;4.90;99.90
14172;DHT22;7165;52.388;4.928;2023-02-28T10:15:38;4.80;99.90
14172;DHT22;7165;52.388;4.928;2023-02-28T10:18:20;4.80;99.90
14172;DHT22;7165;52.388;4.928;2023-02-28T10:20:49;4.80;99.90
14172;DHT22;7165;52.388;4.928;2023-02-28T10:23:21;4.80;99.90
14172;DHT22;7165;52.388;4.928;2023-02-28T10:25:53;4.70;99.90
14172;DHT22;7165;52.388;4.928;2023-02-28T10:28:21;4.70;99.90
14172;DHT22;7165;52.388;4.928;2023-02-28T10:30:49;4.70;99.90
14172;DHT22;7165;52.388;4.928;2023-02-28T10:33:22;4.70;99.90
14172;DHT22;7165;52.388;4.928;2023-02-28T10:35:52;4.70;99.90
14172;DHT22;7165;52.388;4.928;2023-02-28T10:38:21;4.70;99.90
14172;DHT22;7165;52.388;4.928;2023-02-28T10:40:48;4.80;99.90
14172;DHT22;7165;52.388;4.928;2023-02-28T10:43:22;4.90;99.90
14172;DHT22;7165;52.388;4.928;2023-02-28T10:46:15;5.00;99.90
14172;DHT22;7165;52.388;4.928;2023-02-28T10:49:01;5.20;99.90
14172;DHT22;7165;52.388;4.928;2023-02-28T10:51:35;5.30;99.90
14172;DHT22;7165;52.388;4.928;2023-02-28T10:54:03;5.20;99.90
14172;DHT22;7165;52.388;4.928;2023-02-28T10:56:30;5.30;99.90
14172;DHT22;7165;52.388;4.928;2023-02-28T10:58:59;5.30;99.90
14172;DHT22;7165;52.388;4.928;2023-02-28T11:01:36;5.40;99.90
14172;DHT22;7165;52.388;4.928;2023-02-28T11:04:03;5.50;99.90
14172;DHT22;7165;52.388;4.928;2023-02-28T11:06:43;5.60;99.90
14172;DHT22;7165;52.388;4.928;2023-02-28T11:09:20;5.60;99.90
14172;DHT22;7165;52.388;4.928;2023-02-28T11:11:49;5.70;99.90
14172;DHT22;7165;52.388;4.928;2023-02-28T11:14:20;5.70;99.90
14172;DHT22;7165;52.388;4.928;2023-02-28T11:16:48;5.80;99.90
14172;DHT22;7165;52.388;4.928;2023-02-28T11:19:19;5.80;99.90
14172;DHT22;7165;52.388;4.928;2023-02-28T11:21:53;5.80;99.90
14172;DHT22;7165;52.388;4.928;2023-02-28T11:24:24;5.90;99.90
14172;DHT22;7165;52.388;4.928;2023-02-28T11:26:52;5.90;99.90
14172;DHT22;7165;52.388;4.928;2023-02-28T11:29:21;5.90;99.90
14172;DHT22;7165;52.388;4.928;2023-02-28T11:32:11;6.00;99.90
14172;DHT22;7165;52.388;4.928;2023-02-28T11:34:38;6.10;99.90
14172;DHT22;7165;52.388;4.928;2023-02-28T11:37:09;6.20;99.90
14172;DHT22;7165;52.388;4.928;2023-02-28T11:39:36;6.30;99.90
14172;DHT22;7165;52.388;4.928;2023-02-28T11:45:07;6.50;99.90
14172;DHT22;7165;52.388;4.928;2023-02-28T11:47:39;6.80;99.90
14172;DHT22;7165;52.388;4.928;2023-02-28T11:50:13;7.10;99.90
14172;DHT22;7165;52.388;4.928;2023-02-28T11:52:45;7.30;99.90
14172;DHT22;7165;52.388;4.928;2023-02-28T11:55:16;7.40;99.90
14172;DHT22;7165;52.388;4.928;2023-02-28T11:57:49;7.60;99.90
14172;DHT22;7165;52.388;4.928;2023-02-28T12:00:25;7.80;99.90
14172;DHT22;7165;52.388;4.928;2023-02-28T12:03:06;7.80;99.90
14172;DHT22;7165;52.388;4.928;2023-02-28T12:05:41;7.90;99.90
14172;DHT22;7165;52.388;4.928;2023-02-28T12:08:23;8.10;99.90
14172;DHT22;7165;52.388;4.928;2023-02-28T12:11:00;8.20;99.90
14172;DHT22;7165;52.388;4.928;2023-02-28T12:13:33;8.20;99.90
14172;DHT22;7165;52.388;4.928;2023-02-28T12:16:09;8.30;99.90
14172;DHT22;7165;52.388;4.928;2023-02-28T12:18:44;8.40;99.90
14172;DHT22;7165;52.388;4.928;2023-02-28T12:21:15;8.70;99.90
14172;DHT22;7165;52.388;4.928;2023-02-28T12:23:52;8.60;99.90
14172;DHT22;7165;52.388;4.928;2023-02-28T12:26:22;8.70;99.90
14172;DHT22;7165;52.388;4.928;2023-02-28T12:28:52;8.80;99.90
14172;DHT22;7165;52.388;4.928;2023-02-28T12:31:20;8.90;99.90
14172;DHT22;7165;52.388;4.928;2023-02-28T12:33:56;8.80;99.90
14172;DHT22;7165;52.388;4.928;2023-02-28T12:36:25;8.70;99.90
14172;DHT22;7165;52.388;4.928;2023-02-28T12:38:55;8.60;99.90
14172;DHT22;7165;52.388;4.928;2023-02-28T12:41:26;8.60;99.90
14172;DHT22;7165;52.388;4.928;2023-02-28T12:43:55;8.80;99.90
14172;DHT22;7165;52.388;4.928;2023-02-28T12:46:25;8.90;99.90
14172;DHT22;7165;52.388;4.928;2023-02-28T12:48:52;9.10;99.90
14172;DHT22;7165;52.388;4.928;2023-02-28T12:51:21;9.10;99.90
14172;DHT22;7165;52.388;4.928;2023-02-28T12:53:51;9.20;99.90
14172;DHT22;7165;52.388;4.928;2023-02-28T12:56:36;9.30;99.90
14172;DHT22;7165;52.388;4.928;2023-02-28T12:59:16;9.20;99.90
14172;DHT22;7165;52.388;4.928;2023-02-28T13:04:55;9.10;99.90
14172;DHT22;7165;52.388;4.928;2023-02-28T13:07:55;8.90;99.90
14172;DHT22;7165;52.388;4.928;2023-02-28T13:10:38;9.00;99.90
14172;DHT22;7165;52.388;4.928;2023-02-28T13:13:14;9.20;99.90
14172;DHT22;7165;52.388;4.928;2023-02-28T13:15:57;9.20;99.90
14172;DHT22;7165;52.388;4.928;2023-02-28T13:18:30;9.20;99.90
14172;DHT22;7165;52.388;4.928;2023-02-28T13:20:57;9.20;99.90
14172;DHT22;7165;52.388;4.928;2023-02-28T13:23:40;9.10;99.90
14172;DHT22;7165;52.388;4.928;2023-02-28T13:26:07;9.10;99.90
14172;DHT22;7165;52.388;4.928;2023-02-28T13:29:25;9.20;99.90
14172;DHT22;7165;52.388;4.928;2023-02-28T13:32:29;9.30;99.90
14172;DHT22;7165;52.388;4.928;2023-02-28T13:38:33;9.50;99.90
14172;DHT22;7165;52.388;4.928;2023-02-28T13:44:06;9.30;99.90
14172;DHT22;7165;52.388;4.928;2023-02-28T13:46:38;9.40;99.90
14172;DHT22;7165;52.388;4.928;2023-02-28T13:49:26;9.30;99.90
14172;DHT22;7165;52.388;4.928;2023-02-28T13:52:00;9.30;99.90
14172;DHT22;7165;52.388;4.928;2023-02-28T13:54:39;9.40;99.90
14172;DHT22;7165;52.388;4.928;2023-02-28T13:57:23;9.40;99.90
14172;DHT22;7165;52.388;4.928;2023-02-28T14:00:02;9.40;99.90
14172;DHT22;7165;52.388;4.928;2023-02-28T14:02:52;9.50;99.90
14172;DHT22;7165;52.388;4.928;2023-02-28T14:05:24;9.50;99.90
14172;DHT22;7165;52.388;4.928;2023-02-28T14:07:54;9.30;99.90
14172;DHT22;7165;52.388;4.928;2023-02-28T14:10:27;9.30;99.90
14172;DHT22;7165;52.388;4.928;2023-02-28T14:15:49;9.40;99.90
14172;DHT22;7165;52.388;4.928;2023-02-28T14:18:24;9.40;99.90
14172;DHT22;7165;52.388;4.928;2023-02-28T14:20:57;9.50;99.90
14172;DHT22;7165;52.388;4.928;2023-02-28T14:26:55;9.60;99.90
14172;DHT22;7165;52.388;4.928;2023-02-28T14:29:27;9.60;99.90
14172;DHT22;7165;52.388;4.928;2023-02-28T14:31:58;9.70;99.90
14172;DHT22;7165;52.388;4.928;2023-02-28T14:34:27;9.80;99.90
14172;DHT22;7165;52.388;4.928;2023-02-28T14:37:00;9.80;99.90
14172;DHT22;7165;52.388;4.928;2023-02-28T14:39:27;9.80;99.90
14172;DHT22;7165;52.388;4.928;2023-02-28T14:41:56;9.90;99.90
14172;DHT22;7165;52.388;4.928;2023-02-28T14:44:24;9.70;99.90
14172;DHT22;7165;52.388;4.928;2023-02-28T14:46:52;9.60;99.90
14172;DHT22;7165;52.388;4.928;2023-02-28T14:49:20;9.50;99.90
14172;DHT22;7165;52.388;4.928;2023-02-28T14:51:49;9.40;99.90
14172;DHT22;7165;52.388;4.928;2023-02-28T14:54:31;9.30;99.90
14172;DHT22;7165;52.388;4.928;2023-02-28T14:56:58;9.30;99.90
14172;DHT22;7165;52.388;4.928;2023-02-28T14:59:27;9.50;99.90
14172;DHT22;7165;52.388;4.928;2023-02-28T15:02:18;9.40;99.90
14172;DHT22;7165;52.388;4.928;2023-02-28T15:04:53;9.50;99.90
14172;DHT22;7165;52.388;4.928;2023-02-28T15:07:20;9.50;99.90
14172;DHT22;7165;52.388;4.928;2023-02-28T15:10:13;9.40;99.90
14172;DHT22;7165;52.388;4.928;2023-02-28T15:12:46;9.40;99.90
14172;DHT22;7165;52.388;4.928;2023-02-28T15:15:16;9.40;99.90
14172;DHT22;7165;52.388;4.928;2023-02-28T15:17:45;9.30;99.90
14172;DHT22;7165;52.388;4.928;2023-02-28T15:20:14;9.30;99.90
14172;DHT22;7165;52.388;4.928;2023-02-28T15:22:41;9.40;99.90
14172;DHT22;7165;52.388;4.928;2023-02-28T15:25:14;9.30;99.90
14172;DHT22;7165;52.388;4.928;2023-02-28T15:27:48;9.20;99.90
14172;DHT22;7165;52.388;4.928;2023-02-28T15:30:17;9.20;99.90
14172;DHT22;7165;52.388;4.928;2023-02-28T15:32:45;9.00;99.90
14172;DHT22;7165;52.388;4.928;2023-02-28T15:35:29;8.90;99.90
14172;DHT22;7165;52.388;4.928;2023-02-28T15:38:00;8.90;99.90
14172;DHT22;7165;52.388;4.928;2023-02-28T15:40:30;8.70;99.90
14172;DHT22;7165;52.388;4.928;2023-02-28T15:42:59;8.60;99.90
14172;DHT22;7165;52.388;4.928;2023-02-28T15:45:28;8.60;99.90
14172;DHT22;7165;52.388;4.928;2023-02-28T15:47:54;8.50;99.90
14172;DHT22;7165;52.388;4.928;2023-02-28T15:50:22;8.50;99.90
14172;DHT22;7165;52.388;4.928;2023-02-28T15:52:49;8.50;99.90
14172;DHT22;7165;52.388;4.928;2023-02-28T15:55:19;8.50;99.90
14172;DHT22;7165;52.388;4.928;2023-02-28T15:57:49;8.60;99.90
14172;DHT22;7165;52.388;4.928;2023-02-28T16:00:21;8.70;99.90
14172;DHT22;7165;52.388;4.928;2023-02-28T16:02:48;8.70;99.90
14172;DHT22;7165;52.388;4.928;2023-02-28T16:05:23;8.80;99.90
14172;DHT22;7165;52.388;4.928;2023-02-28T16:07:57;8.80;99.90
14172;DHT22;7165;52.388;4.928;2023-02-28T16:10:24;8.60;99.90
14172;DHT22;7165;52.388;4.928;2023-02-28T16:12:55;8.50;99.90
14172;DHT22;7165;52.388;4.928;2023-02-28T16:15:24;8.30;99.90
14172;DHT22;7165;52.388;4.928;2023-02-28T16:17:52;8.10;99.90
14172;DHT22;7165;52.388;4.928;2023-02-28T16:20:21;7.90;99.90
14172;DHT22;7165;52.388;4.928;2023-02-28T16:22:48;7.60;99.90
14172;DHT22;7165;52.388;4.928;2023-02-28T16:25:16;7.40;99.90
14172;DHT22;7165;52.388;4.928;2023-02-28T16:27:46;7.30;99.90
14172;DHT22;7165;52.388;4.928;2023-02-28T16:30:19;7.20;99.90
14172;DHT22;7165;52.388;4.928;2023-02-28T16:32:47;7.10;99.90
14172;DHT22;7165;52.388;4.928;2023-02-28T16:35:13;7.00;99.90
14172;DHT22;7165;52.388;4.928;2023-02-28T16:37:40;6.90;99.90
14172;DHT22;7165;52.388;4.928;2023-02-28T16:40:13;6.80;99.90
14172;DHT22;7165;52.388;4.928;2023-02-28T16:42:40;6.70;99.90
14172;DHT22;7165;52.388;4.928;2023-02-28T16:45:15;6.70;99.90
14172;DHT22;7165;52.388;4.928;2023-02-28T16:47:43;6.60;99.90
14172;DHT22;7165;52.388;4.928;2023-02-28T16:50:14;6.50;99.90